Time;durP1;ratioP1;P1;durP2;ratioP2;P2;SDS_P1;SDS_P2;PMS_P1;PMS_P2;Temp;Humidity;BMP_temperature;BMP_pressure;BME280_temperature;BME280_humidity;BME280_pressure;Samples;Min_cycle;Max_cycle;Signal;HPM_P1;HPM_P2
2023/05/25 00:00:10;;;;;;;25.50;20.80;;;;;;;-128.00;-1.00;-1.00;105657;1254;1004284;-72
2023/05/25 00:02:56;;;;;;;23.20;20.30;;;;;;;-128.00;-1.00;-1.00;105675;1252;1051579;-72
2023/05/25 00:05:26;;;;;;;22.80;19.00;;;;;;;-128.00;-1.00;-1.00;105659;1254;1005437;-72
2023/05/25 00:07:54;;;;;;;20.20;18.10;;;;;;;-128.00;-1.00;-1.00;105606;1253;1055888;-72
2023/05/25 00:10:20;;;;;;;22.90;20.50;;;;;;;-128.00;-1.00;-1.00;105585;1254;1003989;-72
2023/05/25 00:12:47;;;;;;;20.20;18.00;;;;;;;-128.00;-1.00;-1.00;105626;1253;1004251;-72
2023/05/25 00:15:13;;;;;;;21.90;19.00;;;;;;;-128.00;-1.00;-1.00;105659;1251;1004741;-72
2023/05/25 00:17:40;;;;;;;25.90;19.60;;;;;;;-128.00;-1.00;-1.00;105717;1251;1003481;-72
2023/05/25 00:20:07;;;;;;;22.60;18.70;;;;;;;-128.00;-1.00;-1.00;105722;1251;1004086;-72
2023/05/25 00:22:35;;;;;;;21.10;18.90;;;;;;;-128.00;-1.00;-1.00;105658;1251;1004020;-72
2023/05/25 00:25:03;;;;;;;21.70;19.40;;;;;;;-128.00;-1.00;-1.00;105688;1251;1004292;-72
2023/05/25 00:27:30;;;;;;;19.70;17.70;;;;;;;-128.00;-1.00;-1.00;105722;1251;1004342;-72
2023/05/25 00:29:57;;;;;;;21.70;18.50;;;;;;;-128.00;-1.00;-1.00;105780;1251;1004322;-72
2023/05/25 00:32:24;;;;;;;21.00;18.70;;;;;;;-128.00;-1.00;-1.00;105725;1251;1005480;-72
2023/05/25 00:34:50;;;;;;;21.20;18.60;;;;;;;-128.00;-1.00;-1.00;105674;1251;1004889;-72
2023/05/25 00:37:17;;;;;;;20.80;18.50;;;;;;;-128.00;-1.00;-1.00;105690;1251;1003766;-72
2023/05/25 00:39:43;;;;;;;22.30;18.80;;;;;;;-128.00;-1.00;-1.00;105706;1251;1004382;-72
2023/05/25 00:42:10;;;;;;;21.60;19.30;;;;;;;-128.00;-1.00;-1.00;105743;1251;1004600;-72
2023/05/25 00:44:36;;;;;;;21.20;18.90;;;;;;;-128.00;-1.00;-1.00;105700;1251;1003943;-72
2023/05/25 00:47:03;;;;;;;23.10;20.40;;;;;;;-128.00;-1.00;-1.00;105681;1251;1003470;-72
2023/05/25 00:49:33;;;;;;;24.40;20.10;;;;;;;-128.00;-1.00;-1.00;105559;1251;1004231;-72
2023/05/25 00:52:00;;;;;;;24.80;20.40;;;;;;;-128.00;-1.00;-1.00;105705;1251;1047365;-72
2023/05/25 00:54:27;;;;;;;22.30;19.00;;;;;;;-128.00;-1.00;-1.00;105726;1251;1004583;-72
2023/05/25 00:57:03;;;;;;;21.50;19.30;;;;;;;-128.00;-1.00;-1.00;105769;1251;1003494;-73
2023/05/25 00:59:40;;;;;;;21.70;19.50;;;;;;;-128.00;-1.00;-1.00;105667;1251;1059377;-72
2023/05/25 01:02:09;;;;;;;22.90;20.20;;;;;;;-128.00;-1.00;-1.00;105753;1251;1046053;-72
2023/05/25 01:04:45;;;;;;;22.40;19.90;;;;;;;-128.00;-1.00;-1.00;105692;1251;1047197;-72
2023/05/25 01:07:22;;;;;;;21.80;19.30;;;;;;;-128.00;-1.00;-1.00;105667;1251;1062898;-72
2023/05/25 01:09:55;;;;;;;22.80;20.00;;;;;;;-128.00;-1.00;-1.00;105689;1251;1056744;-72
2023/05/25 01:12:25;;;;;;;22.30;20.10;;;;;;;-128.00;-1.00;-1.00;105688;1251;1059506;-72
2023/05/25 01:14:54;;;;;;;21.40;18.90;;;;;;;-128.00;-1.00;-1.00;105657;1251;1046163;-72
2023/05/25 01:17:21;;;;;;;19.40;17.40;;;;;;;-128.00;-1.00;-1.00;105699;1251;1047953;-72
2023/05/25 01:19:47;;;;;;;18.90;17.00;;;;;;;-128.00;-1.00;-1.00;105676;1251;1004773;-72
2023/05/25 01:22:24;;;;;;;20.50;18.30;;;;;;;-128.00;-1.00;-1.00;105740;1251;1003905;-72
2023/05/25 01:24:55;;;;;;;18.70;16.80;;;;;;;-128.00;-1.00;-1.00;105666;1251;1059466;-72
2023/05/25 01:27:31;;;;;;;17.60;15.80;;;;;;;-128.00;-1.00;-1.00;105672;1251;1046418;-73
2023/05/25 01:30:01;;;;;;;19.40;17.40;;;;;;;-128.00;-1.00;-1.00;105731;1251;1046990;-72
2023/05/25 01:32:27;;;;;;;19.90;17.90;;;;;;;-128.00;-1.00;-1.00;105749;1251;1063090;-72
2023/05/25 01:34:56;;;;;;;20.20;18.10;;;;;;;-128.00;-1.00;-1.00;105704;1251;1004640;-72
2023/05/25 01:37:25;;;;;;;21.00;18.90;;;;;;;-128.00;-1.00;-1.00;105702;1251;1059332;-72
2023/05/25 01:39:51;;;;;;;19.00;17.20;;;;;;;-128.00;-1.00;-1.00;105684;1251;1046592;-72
2023/05/25 01:42:18;;;;;;;20.00;17.90;;;;;;;-128.00;-1.00;-1.00;105735;1251;1004501;-72
2023/05/25 01:44:45;;;;;;;23.50;18.60;;;;;;;-128.00;-1.00;-1.00;105624;1251;1004867;-72
2023/05/25 01:47:21;;;;;;;20.80;18.60;;;;;;;-128.00;-1.00;-1.00;105747;1251;1003515;-72
2023/05/25 01:50:12;;;;;;;22.00;19.70;;;;;;;-128.00;-1.00;-1.00;105707;1251;1058695;-72
2023/05/25 01:52:44;;;;;;;21.30;19.20;;;;;;;-128.00;-1.00;-1.00;105710;1251;1045369;-72
2023/05/25 01:55:14;;;;;;;22.60;20.30;;;;;;;-128.00;-1.00;-1.00;105734;1251;1046852;-72
2023/05/25 01:57:44;;;;;;;24.80;22.40;;;;;;;-128.00;-1.00;-1.00;105680;1251;1062429;-72
2023/05/25 02:00:33;;;;;;;25.40;23.00;;;;;;;-128.00;-1.00;-1.00;105760;1251;1055023;-72
2023/05/25 02:03:00;;;;;;;22.90;20.60;;;;;;;-128.00;-1.00;-1.00;105704;1251;1058520;-72
2023/05/25 02:05:27;;;;;;;25.30;22.80;;;;;;;-128.00;-1.00;-1.00;105759;1251;1004012;-72
2023/05/25 02:07:53;;;;;;;26.10;23.40;;;;;;;-128.00;-1.00;-1.00;105694;1251;1005313;-72
2023/05/25 02:10:20;;;;;;;24.00;21.60;;;;;;;-128.00;-1.00;-1.00;105714;1251;1004419;-71
2023/05/25 02:12:46;;;;;;;25.80;23.20;;;;;;;-128.00;-1.00;-1.00;105703;1251;1003989;-72
2023/05/25 02:15:14;;;;;;;30.50;27.40;;;;;;;-128.00;-1.00;-1.00;105688;1251;1004847;-72
2023/05/25 02:17:42;;;;;;;30.20;27.10;;;;;;;-128.00;-1.00;-1.00;105580;1251;1004935;-72
2023/05/25 02:20:10;;;;;;;30.00;26.80;;;;;;;-128.00;-1.00;-1.00;105723;1251;1005177;-72
2023/05/25 02:22:36;;;;;;;25.10;22.50;;;;;;;-128.00;-1.00;-1.00;105725;1251;1003353;-72
2023/05/25 02:25:04;;;;;;;24.60;21.80;;;;;;;-128.00;-1.00;-1.00;105766;1251;1005116;-72
2023/05/25 02:27:30;;;;;;;21.20;19.00;;;;;;;-128.00;-1.00;-1.00;105555;1251;1004586;-72
2023/05/25 02:29:57;;;;;;;21.60;19.30;;;;;;;-128.00;-1.00;-1.00;105708;1251;1005013;-72
2023/05/25 02:32:23;;;;;;;19.60;17.50;;;;;;;-128.00;-1.00;-1.00;105692;1251;1003513;-72
2023/05/25 02:34:50;;;;;;;19.00;17.10;;;;;;;-128.00;-1.00;-1.00;105729;1251;1003990;-72
2023/05/25 02:37:16;;;;;;;18.20;16.30;;;;;;;-128.00;-1.00;-1.00;105693;1251;1004285;-72
2023/05/25 02:39:43;;;;;;;18.60;16.60;;;;;;;-128.00;-1.00;-1.00;105678;1251;1004573;-72
2023/05/25 02:42:10;;;;;;;18.90;16.90;;;;;;;-128.00;-1.00;-1.00;105733;1251;1004089;-72
2023/05/25 02:44:36;;;;;;;19.10;16.80;;;;;;;-128.00;-1.00;-1.00;105704;1251;1004734;-72
2023/05/25 02:47:03;;;;;;;18.20;16.40;;;;;;;-128.00;-1.00;-1.00;105708;1251;1004100;-72
2023/05/25 02:49:29;;;;;;;17.70;16.00;;;;;;;-128.00;-1.00;-1.00;105746;1251;1003591;-72
2023/05/25 02:51:56;;;;;;;17.50;15.80;;;;;;;-128.00;-1.00;-1.00;105706;1251;1004153;-72
2023/05/25 02:54:22;;;;;;;18.80;16.90;;;;;;;-128.00;-1.00;-1.00;105708;1251;1004320;-72
2023/05/25 02:56:49;;;;;;;19.00;16.90;;;;;;;-128.00;-1.00;-1.00;105724;1251;1004368;-72
2023/05/25 02:59:15;;;;;;;17.20;15.50;;;;;;;-128.00;-1.00;-1.00;105753;1251;1004622;-71
2023/05/25 03:01:42;;;;;;;19.90;17.90;;;;;;;-128.00;-1.00;-1.00;105720;1251;1004852;-71
2023/05/25 03:04:08;;;;;;;19.60;17.70;;;;;;;-128.00;-1.00;-1.00;105723;1251;1004669;-71
2023/05/25 03:06:35;;;;;;;21.90;19.70;;;;;;;-128.00;-1.00;-1.00;105695;1251;1005279;-71
2023/05/25 03:09:03;;;;;;;23.30;20.90;;;;;;;-128.00;-1.00;-1.00;105573;1251;1004084;-71
2023/05/25 03:11:30;;;;;;;23.70;21.40;;;;;;;-128.00;-1.00;-1.00;105717;1251;1061768;-71
2023/05/25 03:13:56;;;;;;;24.80;22.20;;;;;;;-128.00;-1.00;-1.00;105735;1251;1003606;-71
2023/05/25 03:16:24;;;;;;;24.20;21.80;;;;;;;-128.00;-1.00;-1.00;105725;1251;1004305;-72
2023/05/25 03:18:51;;;;;;;26.90;23.80;;;;;;;-128.00;-1.00;-1.00;105714;1251;1003654;-72
2023/05/25 03:21:17;;;;;;;25.40;22.70;;;;;;;-128.00;-1.00;-1.00;105745;1251;1004006;-72
2023/05/25 03:23:44;;;;;;;25.80;23.30;;;;;;;-128.00;-1.00;-1.00;105386;1251;1004575;-71
2023/05/25 03:26:10;;;;;;;25.00;22.70;;;;;;;-128.00;-1.00;-1.00;105744;1251;1004387;-72
2023/05/25 03:28:37;;;;;;;24.90;22.50;;;;;;;-128.00;-1.00;-1.00;105718;1251;1003640;-72
2023/05/25 03:31:03;;;;;;;26.30;23.60;;;;;;;-128.00;-1.00;-1.00;105691;1251;1004761;-72
2023/05/25 03:33:30;;;;;;;26.40;23.60;;;;;;;-128.00;-1.00;-1.00;105584;1251;1005277;-72
2023/05/25 03:35:56;;;;;;;27.90;25.10;;;;;;;-128.00;-1.00;-1.00;105769;1251;1003949;-72
2023/05/25 03:38:23;;;;;;;29.20;26.00;;;;;;;-128.00;-1.00;-1.00;105684;1252;1004525;-72
2023/05/25 03:40:49;;;;;;;30.30;27.10;;;;;;;-128.00;-1.00;-1.00;105718;1251;1003663;-72
2023/05/25 03:43:16;;;;;;;28.30;25.30;;;;;;;-128.00;-1.00;-1.00;105714;1251;1005237;-72
2023/05/25 03:45:42;;;;;;;32.50;29.10;;;;;;;-128.00;-1.00;-1.00;105599;1251;1004871;-71
2023/05/25 03:48:09;;;;;;;31.90;28.60;;;;;;;-128.00;-1.00;-1.00;105700;1251;1004187;-71
2023/05/25 03:50:35;;;;;;;31.70;28.50;;;;;;;-128.00;-1.00;-1.00;105736;1251;1004012;-71
2023/05/25 03:53:02;;;;;;;32.60;29.30;;;;;;;-128.00;-1.00;-1.00;105719;1251;1004146;-71
2023/05/25 03:55:29;;;;;;;33.60;30.10;;;;;;;-128.00;-1.00;-1.00;105690;1251;1004206;-71
2023/05/25 03:57:56;;;;;;;32.90;29.40;;;;;;;-128.00;-1.00;-1.00;105732;1251;1004502;-71
2023/05/25 04:00:22;;;;;;;32.80;29.50;;;;;;;-128.00;-1.00;-1.00;105757;1251;1004342;-72
2023/05/25 04:02:49;;;;;;;33.80;30.30;;;;;;;-128.00;-1.00;-1.00;105699;1251;1004287;-72
2023/05/25 04:05:16;;;;;;;31.50;28.30;;;;;;;-128.00;-1.00;-1.00;105586;1251;1004366;-72
2023/05/25 04:07:43;;;;;;;32.70;29.50;;;;;;;-128.00;-1.00;-1.00;105731;1251;1004702;-72
2023/05/25 04:10:10;;;;;;;34.80;30.80;;;;;;;-128.00;-1.00;-1.00;105743;1251;1004601;-71
2023/05/25 04:12:36;;;;;;;33.90;30.40;;;;;;;-128.00;-1.00;-1.00;105680;1251;1005008;-72
2023/05/25 04:15:07;;;;;;;34.00;30.40;;;;;;;-128.00;-1.00;-1.00;105750;1251;1003815;-72
2023/05/25 04:17:35;;;;;;;34.90;31.40;;;;;;;-128.00;-1.00;-1.00;105614;1251;1059626;-72
2023/05/25 04:20:02;;;;;;;33.00;29.60;;;;;;;-128.00;-1.00;-1.00;105717;1251;1004165;-72
2023/05/25 04:22:29;;;;;;;34.50;30.90;;;;;;;-128.00;-1.00;-1.00;105374;1251;1003720;-71
2023/05/25 04:24:56;;;;;;;35.70;31.40;;;;;;;-128.00;-1.00;-1.00;105689;1251;1005025;-73
2023/05/25 04:27:22;;;;;;;35.40;31.70;;;;;;;-128.00;-1.00;-1.00;105755;1251;1003172;-71
2023/05/25 04:29:49;;;;;;;36.20;32.40;;;;;;;-128.00;-1.00;-1.00;105709;1251;1004606;-71
2023/05/25 04:32:16;;;;;;;34.50;30.80;;;;;;;-128.00;-1.00;-1.00;105578;1251;1004062;-71
2023/05/25 04:34:45;;;;;;;35.60;30.80;;;;;;;-128.00;-1.00;-1.00;105735;1251;1005121;-71
2023/05/25 04:37:12;;;;;;;33.70;30.10;;;;;;;-128.00;-1.00;-1.00;105753;1251;1063205;-71
2023/05/25 04:39:38;;;;;;;32.20;28.90;;;;;;;-128.00;-1.00;-1.00;105725;1251;1006100;-71
2023/05/25 04:42:05;;;;;;;30.50;27.30;;;;;;;-128.00;-1.00;-1.00;105734;1251;1003626;-72
2023/05/25 04:44:32;;;;;;;27.00;23.00;;;;;;;-128.00;-1.00;-1.00;105681;1251;1003446;-72
2023/05/25 04:46:59;;;;;;;28.40;24.90;;;;;;;-128.00;-1.00;-1.00;105713;1251;1005752;-72
2023/05/25 04:49:26;;;;;;;30.50;25.30;;;;;;;-128.00;-1.00;-1.00;105766;1251;1003438;-72
2023/05/25 04:51:53;;;;;;;30.20;25.70;;;;;;;-128.00;-1.00;-1.00;105764;1251;1004014;-72
2023/05/25 04:54:19;;;;;;;27.90;25.00;;;;;;;-128.00;-1.00;-1.00;105684;1251;1004015;-72
2023/05/25 04:56:46;;;;;;;26.50;23.70;;;;;;;-128.00;-1.00;-1.00;105782;1251;1004440;-72
2023/05/25 04:59:12;;;;;;;27.80;24.90;;;;;;;-128.00;-1.00;-1.00;105729;1251;1003483;-72
2023/05/25 05:01:43;;;;;;;27.40;23.50;;;;;;;-128.00;-1.00;-1.00;105717;1251;1003688;-73
2023/05/25 05:04:10;;;;;;;25.60;22.40;;;;;;;-128.00;-1.00;-1.00;105829;1251;1055152;-73
2023/05/25 05:06:37;;;;;;;26.10;23.30;;;;;;;-128.00;-1.00;-1.00;105634;1251;1004121;-73
2023/05/25 05:09:04;;;;;;;25.00;22.30;;;;;;;-128.00;-1.00;-1.00;105722;1251;1003358;-72
2023/05/25 05:11:30;;;;;;;23.10;20.80;;;;;;;-128.00;-1.00;-1.00;105711;1251;1004568;-72
2023/05/25 05:13:57;;;;;;;26.40;22.00;;;;;;;-128.00;-1.00;-1.00;105584;1251;1004135;-72
2023/05/25 05:16:24;;;;;;;25.00;22.30;;;;;;;-128.00;-1.00;-1.00;105682;1251;1004316;-72
2023/05/25 05:18:51;;;;;;;27.50;22.60;;;;;;;-128.00;-1.00;-1.00;105634;1251;1004440;-72
2023/05/25 05:21:17;;;;;;;24.10;21.20;;;;;;;-128.00;-1.00;-1.00;105752;1251;1004864;-73
2023/05/25 05:23:45;;;;;;;25.80;22.00;;;;;;;-128.00;-1.00;-1.00;105725;1251;1004120;-71
2023/05/25 05:26:13;;;;;;;22.50;20.20;;;;;;;-128.00;-1.00;-1.00;105543;1251;1004643;-72
2023/05/25 05:28:40;;;;;;;23.30;20.80;;;;;;;-128.00;-1.00;-1.00;105665;1251;1055636;-71
2023/05/25 05:31:06;;;;;;;21.70;19.50;;;;;;;-128.00;-1.00;-1.00;105717;1251;1003913;-72
2023/05/25 05:33:33;;;;;;;22.20;19.90;;;;;;;-128.00;-1.00;-1.00;105741;1251;1004439;-72
2023/05/25 05:36:01;;;;;;;21.50;19.10;;;;;;;-128.00;-1.00;-1.00;105779;1251;1004964;-72
2023/05/25 05:38:27;;;;;;;21.70;19.40;;;;;;;-128.00;-1.00;-1.00;105572;1251;1004862;-72
2023/05/25 05:40:54;;;;;;;21.80;18.90;;;;;;;-128.00;-1.00;-1.00;105719;1251;1003963;-72
2023/05/25 05:43:20;;;;;;;19.60;17.50;;;;;;;-128.00;-1.00;-1.00;105526;1251;1004428;-72
2023/05/25 05:45:47;;;;;;;21.50;19.10;;;;;;;-128.00;-1.00;-1.00;105728;1251;1003779;-72
2023/05/25 05:48:14;;;;;;;21.50;17.30;;;;;;;-128.00;-1.00;-1.00;105754;1251;1003631;-72
2023/05/25 05:50:40;;;;;;;20.20;18.20;;;;;;;-128.00;-1.00;-1.00;105759;1251;1004601;-72
2023/05/25 05:53:08;;;;;;;19.80;17.70;;;;;;;-128.00;-1.00;-1.00;105757;1251;1003596;-72
2023/05/25 05:55:35;;;;;;;18.70;16.80;;;;;;;-128.00;-1.00;-1.00;105718;1251;1003358;-72
2023/05/25 05:58:01;;;;;;;19.50;17.60;;;;;;;-128.00;-1.00;-1.00;105707;1251;1004715;-72
2023/05/25 06:00:28;;;;;;;18.90;17.00;;;;;;;-128.00;-1.00;-1.00;105759;1251;1005094;-72
2023/05/25 06:02:54;;;;;;;20.20;15.50;;;;;;;-128.00;-1.00;-1.00;105697;1251;1004627;-72
2023/05/25 06:05:22;;;;;;;18.20;16.40;;;;;;;-128.00;-1.00;-1.00;105738;1251;1003779;-72
2023/05/25 06:07:48;;;;;;;18.90;15.80;;;;;;;-128.00;-1.00;-1.00;105708;1251;1004834;-72
2023/05/25 06:10:15;;;;;;;18.60;16.70;;;;;;;-128.00;-1.00;-1.00;105739;1251;1004704;-72
2023/05/25 06:12:41;;;;;;;20.10;16.80;;;;;;;-128.00;-1.00;-1.00;105711;1252;1005074;-72
2023/05/25 06:15:08;;;;;;;18.00;16.20;;;;;;;-128.00;-1.00;-1.00;105415;1251;1004534;-72
2023/05/25 06:17:35;;;;;;;18.30;16.40;;;;;;;-128.00;-1.00;-1.00;105537;1251;1004704;-72
2023/05/25 06:20:02;;;;;;;18.50;16.60;;;;;;;-128.00;-1.00;-1.00;105689;1251;1004418;-72
2023/05/25 06:22:29;;;;;;;17.90;16.00;;;;;;;-128.00;-1.00;-1.00;105699;1251;1004344;-72
2023/05/25 06:24:55;;;;;;;18.00;15.50;;;;;;;-128.00;-1.00;-1.00;105727;1252;1004485;-72
2023/05/25 06:27:22;;;;;;;17.90;16.00;;;;;;;-128.00;-1.00;-1.00;105432;1251;1004072;-72
2023/05/25 06:29:48;;;;;;;18.20;16.30;;;;;;;-128.00;-1.00;-1.00;105744;1251;1004885;-72
2023/05/25 06:32:15;;;;;;;19.10;16.60;;;;;;;-128.00;-1.00;-1.00;105724;1251;1003818;-72
2023/05/25 06:34:42;;;;;;;18.50;16.50;;;;;;;-128.00;-1.00;-1.00;105742;1251;1003986;-72
2023/05/25 06:37:08;;;;;;;19.60;17.10;;;;;;;-128.00;-1.00;-1.00;105701;1251;1007114;-72
2023/05/25 06:39:35;;;;;;;19.40;16.70;;;;;;;-128.00;-1.00;-1.00;105727;1251;1004023;-72
2023/05/25 06:42:01;;;;;;;20.00;18.00;;;;;;;-128.00;-1.00;-1.00;105749;1251;1005027;-72
2023/05/25 06:44:28;;;;;;;19.60;17.00;;;;;;;-128.00;-1.00;-1.00;105719;1251;1004044;-72
2023/05/25 06:46:54;;;;;;;19.90;17.80;;;;;;;-128.00;-1.00;-1.00;105736;1251;1004272;-72
2023/05/25 06:49:21;;;;;;;19.20;17.20;;;;;;;-128.00;-1.00;-1.00;105710;1251;1004471;-72
2023/05/25 06:51:49;;;;;;;21.00;18.80;;;;;;;-128.00;-1.00;-1.00;105741;1251;1004373;-72
2023/05/25 06:54:16;;;;;;;21.60;17.50;;;;;;;-128.00;-1.00;-1.00;105713;1251;1056036;-72
2023/05/25 06:56:42;;;;;;;19.00;17.00;;;;;;;-128.00;-1.00;-1.00;105706;1251;1004202;-72
2023/05/25 06:59:09;;;;;;;20.40;17.90;;;;;;;-128.00;-1.00;-1.00;105720;1251;1004128;-72
2023/05/25 07:01:36;;;;;;;19.20;17.20;;;;;;;-128.00;-1.00;-1.00;105791;1251;1004640;-72
2023/05/25 07:04:02;;;;;;;19.70;17.60;;;;;;;-128.00;-1.00;-1.00;105757;1251;1004027;-72
2023/05/25 07:06:29;;;;;;;20.20;18.10;;;;;;;-128.00;-1.00;-1.00;105702;1251;1003760;-72
2023/05/25 07:08:55;;;;;;;18.60;16.60;;;;;;;-128.00;-1.00;-1.00;105701;1251;1004053;-72
2023/05/25 07:11:22;;;;;;;20.70;18.10;;;;;;;-128.00;-1.00;-1.00;105756;1251;1004651;-72
2023/05/25 07:13:48;;;;;;;19.90;17.60;;;;;;;-128.00;-1.00;-1.00;105712;1251;1004344;-72
2023/05/25 07:16:15;;;;;;;19.00;16.10;;;;;;;-128.00;-1.00;-1.00;105756;1251;1005117;-73
2023/05/25 07:18:42;;;;;;;21.10;16.90;;;;;;;-128.00;-1.00;-1.00;105494;1251;1004610;-73
2023/05/25 07:21:08;;;;;;;19.10;17.20;;;;;;;-128.00;-1.00;-1.00;105708;1253;1004514;-73
2023/05/25 07:23:36;;;;;;;19.90;17.30;;;;;;;-128.00;-1.00;-1.00;105700;1251;1004920;-73
2023/05/25 07:26:02;;;;;;;23.40;18.00;;;;;;;-128.00;-1.00;-1.00;105515;1251;1006256;-73
2023/05/25 07:28:29;;;;;;;19.90;17.80;;;;;;;-128.00;-1.00;-1.00;105757;1251;1004490;-71
2023/05/25 07:30:55;;;;;;;19.50;17.60;;;;;;;-128.00;-1.00;-1.00;105524;1251;1003982;-71
2023/05/25 07:33:22;;;;;;;19.60;16.80;;;;;;;-128.00;-1.00;-1.00;105697;1251;1003532;-71
2023/05/25 07:35:50;;;;;;;18.20;15.80;;;;;;;-128.00;-1.00;-1.00;105709;1251;1004178;-71
2023/05/25 07:38:17;;;;;;;19.10;17.30;;;;;;;-128.00;-1.00;-1.00;105754;1251;1004679;-71
2023/05/25 07:40:45;;;;;;;19.70;17.70;;;;;;;-128.00;-1.00;-1.00;105758;1252;1004974;-72
2023/05/25 07:43:12;;;;;;;17.80;16.00;;;;;;;-128.00;-1.00;-1.00;105718;1251;1055735;-72
2023/05/25 07:45:39;;;;;;;18.50;16.70;;;;;;;-128.00;-1.00;-1.00;105718;1251;1004403;-72
2023/05/25 07:48:06;;;;;;;18.10;16.00;;;;;;;-128.00;-1.00;-1.00;105722;1251;1004709;-72
2023/05/25 07:50:32;;;;;;;17.90;16.00;;;;;;;-128.00;-1.00;-1.00;105772;1251;1003323;-72
2023/05/25 07:52:59;;;;;;;18.40;16.50;;;;;;;-128.00;-1.00;-1.00;105727;1251;1003233;-72
2023/05/25 07:55:25;;;;;;;19.10;17.10;;;;;;;-128.00;-1.00;-1.00;105732;1251;1004222;-71
2023/05/25 07:57:52;;;;;;;19.70;17.90;;;;;;;-128.00;-1.00;-1.00;105730;1251;1003823;-72
2023/05/25 08:00:19;;;;;;;20.80;18.50;;;;;;;-128.00;-1.00;-1.00;105692;1251;1003344;-72
2023/05/25 08:02:45;;;;;;;20.90;18.80;;;;;;;-128.00;-1.00;-1.00;105769;1251;1004023;-72
2023/05/25 08:05:12;;;;;;;21.30;19.10;;;;;;;-128.00;-1.00;-1.00;105759;1251;1004604;-72
2023/05/25 08:07:39;;;;;;;20.20;18.20;;;;;;;-128.00;-1.00;-1.00;105781;1251;1004308;-72
2023/05/25 08:10:06;;;;;;;20.20;18.10;;;;;;;-128.00;-1.00;-1.00;105695;1251;1004551;-72
2023/05/25 08:12:33;;;;;;;19.30;17.40;;;;;;;-128.00;-1.00;-1.00;105492;1251;1003228;-72
2023/05/25 08:14:59;;;;;;;20.50;18.50;;;;;;;-128.00;-1.00;-1.00;105715;1252;1003947;-72
2023/05/25 08:17:26;;;;;;;20.10;18.00;;;;;;;-128.00;-1.00;-1.00;105780;1251;1003870;-72
2023/05/25 08:19:54;;;;;;;20.90;18.70;;;;;;;-128.00;-1.00;-1.00;105736;1251;1004377;-72
2023/05/25 08:22:21;;;;;;;21.50;19.20;;;;;;;-128.00;-1.00;-1.00;105687;1251;1004178;-72
2023/05/25 08:24:49;;;;;;;23.30;21.00;;;;;;;-128.00;-1.00;-1.00;105734;1251;1004787;-72
2023/05/25 08:27:17;;;;;;;23.20;20.10;;;;;;;-128.00;-1.00;-1.00;105749;1251;1004153;-72
2023/05/25 08:29:43;;;;;;;22.90;20.60;;;;;;;-128.00;-1.00;-1.00;105710;1251;1004164;-72
2023/05/25 08:32:10;;;;;;;23.50;21.00;;;;;;;-128.00;-1.00;-1.00;105493;1251;1004714;-73
2023/05/25 08:34:36;;;;;;;23.20;20.90;;;;;;;-128.00;-1.00;-1.00;105738;1251;1004816;-72
2023/05/25 08:37:03;;;;;;;24.10;21.60;;;;;;;-128.00;-1.00;-1.00;105725;1251;1004723;-72
2023/05/25 08:39:29;;;;;;;24.50;22.00;;;;;;;-128.00;-1.00;-1.00;105730;1255;1004776;-72
2023/05/25 08:41:56;;;;;;;25.50;22.90;;;;;;;-128.00;-1.00;-1.00;105740;1251;1004017;-72
2023/05/25 08:44:22;;;;;;;23.30;20.90;;;;;;;-128.00;-1.00;-1.00;105750;1251;1003883;-72
2023/05/25 08:46:50;;;;;;;24.00;21.60;;;;;;;-128.00;-1.00;-1.00;105719;1251;1004170;-72
2023/05/25 08:49:16;;;;;;;24.30;21.90;;;;;;;-128.00;-1.00;-1.00;105731;1251;1003445;-72
2023/05/25 08:51:52;;;;;;;24.20;21.60;;;;;;;-128.00;-1.00;-1.00;105744;1251;1005152;-72
2023/05/25 08:54:25;;;;;;;23.40;21.00;;;;;;;-128.00;-1.00;-1.00;105781;1251;1062941;-72
2023/05/25 08:56:58;;;;;;;24.40;21.80;;;;;;;-128.00;-1.00;-1.00;105766;1253;1054940;-72
2023/05/25 08:59:28;;;;;;;25.20;22.70;;;;;;;-128.00;-1.00;-1.00;105773;1251;1060443;-72
2023/05/25 09:02:06;;;;;;;25.20;22.70;;;;;;;-128.00;-1.00;-1.00;105743;1251;1046417;-72
2023/05/25 09:04:33;;;;;;;26.00;22.60;;;;;;;-128.00;-1.00;-1.00;105722;1251;1046344;-72
2023/05/25 09:07:00;;;;;;;24.20;21.70;;;;;;;-128.00;-1.00;-1.00;105768;1251;1004487;-72
2023/05/25 09:09:27;;;;;;;25.00;22.60;;;;;;;-128.00;-1.00;-1.00;105510;1251;1004658;-72
2023/05/25 09:11:55;;;;;;;27.40;24.60;;;;;;;-128.00;-1.00;-1.00;105730;1251;1003567;-72
2023/05/25 09:14:23;;;;;;;23.60;21.20;;;;;;;-128.00;-1.00;-1.00;105694;1251;1004437;-71
2023/05/25 09:16:49;;;;;;;24.30;21.80;;;;;;;-128.00;-1.00;-1.00;105719;1251;1005059;-72
2023/05/25 09:19:16;;;;;;;27.10;22.90;;;;;;;-128.00;-1.00;-1.00;105728;1251;1003924;-72
2023/05/25 09:21:43;;;;;;;25.00;22.40;;;;;;;-128.00;-1.00;-1.00;105793;1253;1003804;-72
2023/05/25 09:24:10;;;;;;;26.50;23.70;;;;;;;-128.00;-1.00;-1.00;105752;1251;1004729;-72
2023/05/25 09:26:37;;;;;;;25.80;23.10;;;;;;;-128.00;-1.00;-1.00;105731;1251;1005652;-72
2023/05/25 09:29:03;;;;;;;24.80;22.10;;;;;;;-128.00;-1.00;-1.00;105761;1251;1004585;-72
2023/05/25 09:31:30;;;;;;;28.80;25.70;;;;;;;-128.00;-1.00;-1.00;105787;1251;1003964;-72
2023/05/25 09:33:58;;;;;;;26.20;22.80;;;;;;;-128.00;-1.00;-1.00;105764;1253;1004729;-72
2023/05/25 09:36:25;;;;;;;24.30;21.70;;;;;;;-128.00;-1.00;-1.00;105772;1251;1060351;-72
2023/05/25 09:38:53;;;;;;;25.10;22.50;;;;;;;-128.00;-1.00;-1.00;105716;1255;1005019;-72
2023/05/25 09:41:20;;;;;;;23.40;20.50;;;;;;;-128.00;-1.00;-1.00;105781;1252;1004346;-72
2023/05/25 09:43:47;;;;;;;23.10;20.80;;;;;;;-128.00;-1.00;-1.00;105774;1251;1003343;-73
2023/05/25 09:46:13;;;;;;;21.70;19.40;;;;;;;-128.00;-1.00;-1.00;105784;1251;1004148;-72
2023/05/25 09:48:40;;;;;;;22.60;19.90;;;;;;;-128.00;-1.00;-1.00;105744;1251;1004126;-73
2023/05/25 09:51:07;;;;;;;21.40;18.20;;;;;;;-128.00;-1.00;-1.00;105741;1251;1004461;-73
2023/05/25 09:53:34;;;;;;;21.10;18.20;;;;;;;-128.00;-1.00;-1.00;105712;1251;1004594;-72
2023/05/25 09:56:01;;;;;;;21.90;19.70;;;;;;;-128.00;-1.00;-1.00;105798;1251;1004096;-73
2023/05/25 09:58:28;;;;;;;20.00;17.90;;;;;;;-128.00;-1.00;-1.00;105729;1251;1004094;-72
2023/05/25 10:00:54;;;;;;;21.90;19.60;;;;;;;-128.00;-1.00;-1.00;105679;1252;1003467;-72
2023/05/25 10:03:21;;;;;;;23.80;19.00;;;;;;;-128.00;-1.00;-1.00;105745;1251;1004120;-72
2023/05/25 10:05:49;;;;;;;18.40;16.60;;;;;;;-128.00;-1.00;-1.00;105697;1251;1004288;-72
2023/05/25 10:08:18;;;;;;;21.20;17.80;;;;;;;-128.00;-1.00;-1.00;105750;1251;1003633;-72
2023/05/25 10:10:48;;;;;;;19.90;17.70;;;;;;;-128.00;-1.00;-1.00;105761;1251;1054864;-73
2023/05/25 10:13:20;;;;;;;19.20;17.10;;;;;;;-128.00;-1.00;-1.00;105787;1251;1059251;-73
2023/05/25 10:15:47;;;;;;;21.00;19.00;;;;;;;-128.00;-1.00;-1.00;105724;1251;1046699;-72
2023/05/25 10:18:14;;;;;;;21.90;18.10;;;;;;;-128.00;-1.00;-1.00;105728;1251;1005132;-73
2023/05/25 10:20:45;;;;;;;22.20;19.80;;;;;;;-128.00;-1.00;-1.00;105751;1251;1004173;-73
2023/05/25 10:23:15;;;;;;;22.40;19.60;;;;;;;-128.00;-1.00;-1.00;105742;1251;1056948;-72
2023/05/25 10:25:52;;;;;;;24.70;20.50;;;;;;;-128.00;-1.00;-1.00;105743;1251;1059930;-72
2023/05/25 10:28:28;;;;;;;21.70;19.40;;;;;;;-128.00;-1.00;-1.00;105719;1251;1047379;-72
2023/05/25 10:30:56;;;;;;;20.90;18.70;;;;;;;-128.00;-1.00;-1.00;105751;1251;1046861;-72
2023/05/25 10:33:23;;;;;;;22.80;20.40;;;;;;;-128.00;-1.00;-1.00;105785;1251;1062968;-72
2023/05/25 10:35:52;;;;;;;21.40;19.10;;;;;;;-128.00;-1.00;-1.00;105492;1251;1005059;-72
2023/05/25 10:38:21;;;;;;;22.20;19.70;;;;;;;-128.00;-1.00;-1.00;105794;1252;1059264;-72
2023/05/25 10:40:50;;;;;;;22.50;20.10;;;;;;;-128.00;-1.00;-1.00;105760;1251;1004311;-72
2023/05/25 10:43:18;;;;;;;21.70;19.40;;;;;;;-128.00;-1.00;-1.00;105743;1251;1048491;-73
2023/05/25 10:45:45;;;;;;;20.90;18.60;;;;;;;-128.00;-1.00;-1.00;105798;1251;1004713;-72
2023/05/25 10:48:14;;;;;;;20.80;18.70;;;;;;;-128.00;-1.00;-1.00;105767;1251;1003734;-72
2023/05/25 10:50:40;;;;;;;21.10;18.90;;;;;;;-128.00;-1.00;-1.00;105752;1251;1060319;-72
2023/05/25 10:53:11;;;;;;;22.60;20.30;;;;;;;-128.00;-1.00;-1.00;105757;1251;1005039;-72
2023/05/25 10:56:00;;;;;;;21.70;19.50;;;;;;;-128.00;-1.00;-1.00;105803;1251;1047001;-72
2023/05/25 10:58:28;;;;;;;22.80;20.50;;;;;;;-128.00;-1.00;-1.00;105791;1251;1061931;-72
2023/05/25 11:00:59;;;;;;;24.60;22.00;;;;;;;-128.00;-1.00;-1.00;105747;1251;1004654;-72
2023/05/25 11:03:43;;;;;;;24.60;22.10;;;;;;;-128.00;-1.00;-1.00;105683;1251;1060119;-72